Startpagina
METAR-TAF:

METAR-TAF

Vliegvelden :

Schaffen

Diest, België

breedte: 51-00N, lengte: 005-04E, hoogte: 30 m

Actueel weer

Dit bericht is 20 minuten geleden gemaakt, om 15:55 UTC
Wind 4 kt uit het zuidzuidoosten
Temperatuur 10°C
Vochtigheid 82%
Druk 1026 hPa
Zicht 10 km of meer

METAR: EBDT 141555Z AUTO 15004KT 9999 NCD 10/07 Q1026 BLU

Tijdstip: 17:15 (16:15 UTC)

Verwachting

Dit bericht is 28 uur en het 14 minuten geleden gemaakt, om 12:01 UTC
Verwachting geldig van 13 om 13 UTC tot 13 om 22 UTC
Wind 10 kt uit het zuidzuidwesten
Zicht 10 km of meer
Weinig wolken op 1100 ft
Gebroken wolken op 1700 ft
(lichte
Tijdelijke
van 13 om 13 UTC tot 13 om 15 UTC
Wind 15 kt uit het zuidzuidwesten met uitschieters tot 25 kt
Wijzigt naar
van 13 om 15 UTC tot 13 om 16 UTC
Wind 8 kt uit het zuidzuidwesten

TAF: EBDT 131201Z 1313/1322 20010KT 9999 - FEW011 BKN017 TEMPO 1313/1315 20015G25KT BECMG 1315/1316 21008KT

Waarnemingen en weersverwachtingen van meer dan 4000 vliegvelden (METAR en TAF).

De beschikbare stations zijn de gele en rode punten op de kaart.

Ga met uw muis naar het station om de naam te zien.

Klik dan om waarnemingen en weersverwachtingen te zien.

kaart wijzigen: klik op de groene knoppen met een zwart kruis om in te zoomen, op de groene knop met een streepje om uit te zoomen of op de groene pijlen voor aangrenzende kaarten.


METAR-TAF: